Time;durP1;ratioP1;P1;durP2;ratioP2;P2;SDS_P1;SDS_P2;PMS_P1;PMS_P2;Temp;Humidity;BMP_temperature;BMP_pressure;BME280_temperature;BME280_humidity;BME280_pressure;Samples;Min_cycle;Max_cycle;Signal;HPM_P1;HPM_P2
2022/01/15 00:00:29;;;;;;;61.35;5.18;;;0.20;99.90;;;-1.53;100.00;102422.44;4897199;28;20576;-80
2022/01/15 00:02:56;;;;;;;60.33;4.95;;;0.20;99.90;;;-1.55;100.00;102424.09;4911947;28;20021;-79
2022/01/15 00:05:22;;;;;;;60.72;5.35;;;0.20;99.90;;;-1.60;100.00;102420.47;4906909;28;20030;-80
2022/01/15 00:07:49;;;;;;;68.38;5.90;;;0.20;99.90;;;-1.61;100.00;102428.19;4927892;28;20035;-80
2022/01/15 00:10:19;;;;;;;60.88;5.60;;;0.10;99.90;;;-1.66;100.00;102420.31;4865145;28;20060;-79
2022/01/15 00:12:48;;;;;;;67.22;5.20;;;0.00;99.90;;;-1.72;100.00;102435.59;4915775;28;20037;-80
2022/01/15 00:15:22;;;;;;;69.07;6.13;;;0.00;99.90;;;-1.71;100.00;102437.34;4899470;28;20614;-79
2022/01/15 00:17:58;;;;;;;67.20;5.03;;;;;;;-1.72;100.00;102444.22;4933004;28;20046;-81
2022/01/15 00:20:31;;;;;;;64.57;6.13;;;0.00;99.90;;;-1.69;100.00;102433.09;4906893;28;20037;-81
2022/01/15 00:23:03;;;;;;;74.40;6.68;;;;;;;-1.66;100.00;102439.25;4941572;28;20130;-80
2022/01/15 00:25:51;;;;;;;;;;;;;;;;;;;;;
2022/01/15 00:28:17;;;;;;;90.47;6.20;;;0.10;99.90;;;-1.68;100.00;102427.13;4767806;29;20059;-77
2022/01/15 00:30:53;;;;;;;;;;;;;;;;;;;;;
2022/01/15 00:33:32;;;;;;;;;;;;;;;;;;;;;
2022/01/15 00:36:04;;;;;;;60.10;4.95;;;-0.10;99.90;;;-1.93;100.00;102415.16;4731017;29;20526;-77
2022/01/15 00:38:32;;;;;;;65.53;5.38;;;-0.20;99.90;;;-2.01;100.00;102409.72;4745705;29;20959;-76
2022/01/15 00:41:17;;;;;;;;;;;;;;;;;;;;;
2022/01/15 00:43:54;;;;;;;;;;;;;;;;;;;;;
2022/01/15 00:46:33;;;;;;;;;;;;;;;;;;;;;
2022/01/15 00:49:04;;;;;;;54.63;5.28;;;;;;;-2.09;100.00;102421.53;4753888;29;20043;-78
2022/01/15 00:51:42;;;;;;;;;;;;;;;;;;;;;
2022/01/15 00:54:09;;;;;;;72.90;6.53;;;;;;;-2.07;100.00;102415.59;4807814;29;21493;-79
2022/01/15 00:56:35;;;;;;;64.05;5.65;;;-0.30;99.90;;;-2.08;100.00;102411.22;4876775;28;20101;-76
2022/01/15 00:59:01;;;;;;;86.25;5.10;;;-0.40;99.90;;;-2.09;100.00;102412.06;4900469;28;20541;-77
2022/01/15 01:01:27;;;;;;;84.65;5.88;;;-0.40;99.90;;;-2.09;100.00;102412.06;4901721;28;20117;-77
2022/01/15 01:03:53;;;;;;;66.32;5.75;;;-0.40;99.90;;;-2.13;100.00;102409.34;4985359;28;20041;-77
2022/01/15 01:06:19;;;;;;;73.63;5.60;;;-0.40;99.90;;;-2.16;100.00;102406.66;4985770;28;20530;-77
2022/01/15 01:08:45;;;;;;;68.53;5.88;;;-0.40;99.90;;;-2.21;100.00;102400.47;4984321;28;20042;-77
2022/01/15 01:11:13;;;;;;;73.35;5.20;;;-0.50;99.90;;;-2.29;100.00;102401.09;4969810;28;20533;-77
2022/01/15 01:22:40;;;;;;;65.88;5.75;;;-0.80;99.90;;;-2.62;100.00;102406.00;4970701;28;20113;-78
2022/01/15 01:24:40;;;;;;;86.68;5.75;;;-0.80;99.90;;;-2.63;100.00;102409.41;4968610;28;20054;-76
2022/01/15 01:27:23;;;;;;;62.33;5.53;;;-0.80;99.90;;;-2.58;100.00;102413.00;4962153;28;20033;-76
2022/01/15 01:30:27;;;;;;;75.82;6.25;;;-0.80;99.90;;;-2.54;100.00;102409.72;4992432;28;20045;-77
2022/01/15 01:35:42;;;;;;;78.35;5.50;;;-0.70;99.90;;;-2.54;100.00;102416.59;4977618;28;20039;-76
2022/01/15 01:38:27;;;;;;;62.08;5.80;;;-0.80;99.90;;;-2.55;100.00;102404.50;4962306;28;20026;-76
2022/01/15 01:40:53;;;;;;;70.70;6.57;;;-0.80;99.90;;;-2.59;100.00;102402.63;4966249;28;20037;-75
2022/01/15 01:45:54;;;;;;;70.30;5.68;;;-0.80;99.90;;;-2.63;100.00;102406.81;4969785;28;20022;-74
2022/01/15 01:48:20;;;;;;;84.95;6.18;;;-0.90;99.90;;;-2.65;100.00;102405.91;4978858;28;20022;-76
2022/01/15 01:50:46;;;;;;;73.90;6.32;;;-0.90;99.90;;;-2.64;100.00;102404.19;4977997;28;20430;-77
2022/01/15 01:53:12;;;;;;;86.82;6.75;;;;;;;-2.60;100.00;102404.34;4961036;28;20038;-76
2022/01/15 01:55:38;;;;;;;96.25;6.70;;;-0.80;99.90;;;-2.54;100.00;102406.25;4980302;28;20113;-77
2022/01/15 01:58:06;;;;;;;111.03;7.57;;;-0.80;99.90;;;-2.51;100.00;102407.22;4962613;28;20080;-76
2022/01/15 02:00:32;;;;;;;76.93;6.70;;;-0.70;99.90;;;-2.47;100.00;102400.47;4970346;28;20107;-77
2022/01/15 02:03:00;;;;;;;93.20;6.90;;;-0.70;99.90;;;-2.44;100.00;102407.44;4976944;28;20030;-75
2022/01/15 02:05:27;;;;;;;85.47;7.25;;;-0.70;99.90;;;-2.37;100.00;102404.25;4978416;28;20053;-76
2022/01/15 02:07:53;;;;;;;92.13;7.38;;;-0.60;99.90;;;-2.33;100.00;102404.41;4983675;28;20033;-75
2022/01/15 02:10:21;;;;;;;88.22;6.95;;;-0.60;99.90;;;-2.33;100.00;102404.41;4966622;28;20023;-75
2022/01/15 02:12:50;;;;;;;86.40;7.70;;;-0.60;99.90;;;-2.32;100.00;102402.69;4961835;28;20036;-75
2022/01/15 02:15:21;;;;;;;81.22;7.57;;;-0.60;99.90;;;-2.35;100.00;102406.06;4960762;28;20022;-75
2022/01/15 02:17:52;;;;;;;104.15;8.13;;;-0.60;99.90;;;-2.37;100.00;102397.38;4945267;28;20081;-76
2022/01/15 02:25:55;;;;;;;94.70;7.00;;;-0.60;99.90;;;-2.31;100.00;102395.03;4950025;28;20117;-76
2022/01/15 02:28:29;;;;;;;94.38;7.90;;;-0.60;99.90;;;-2.33;100.00;102394.09;4967863;28;20089;-77
2022/01/15 02:31:03;;;;;;;87.57;6.47;;;-0.60;99.90;;;-2.37;100.00;102399.97;4970008;28;20030;-77
2022/01/15 02:33:30;;;;;;;101.28;6.97;;;-0.60;99.90;;;-2.44;100.00;102400.59;4980173;28;20403;-76
2022/01/15 02:35:58;;;;;;;84.05;6.63;;;-0.70;99.90;;;-2.48;100.00;102394.44;4981045;28;20026;-76
2022/01/15 02:38:24;;;;;;;71.80;7.55;;;-0.70;99.90;;;-2.48;100.00;102398.75;4988240;28;20087;-76
2022/01/15 02:40:52;;;;;;;109.95;8.82;;;-0.70;99.90;;;-2.42;100.00;102388.59;4983232;28;20040;-75
2022/01/15 02:43:27;;;;;;;115.20;9.40;;;-0.60;99.90;;;-2.31;100.00;102383.78;4967666;28;20042;-74
2022/01/15 02:45:55;;;;;;;129.70;9.77;;;-0.60;99.90;;;-2.21;100.00;102382.41;4958943;28;20032;-75
2022/01/15 02:48:28;;;;;;;167.57;9.93;;;-0.50;99.90;;;-2.11;100.00;102379.31;4958652;28;20114;-75
2022/01/15 02:50:56;;;;;;;161.10;10.68;;;-0.40;99.90;;;-1.98;100.00;102390.91;4958868;28;20128;-75
2022/01/15 02:53:23;;;;;;;101.63;9.52;;;-0.30;99.90;;;-1.88;100.00;102370.56;4950085;28;20043;-75
2022/01/15 02:55:53;;;;;;;95.40;11.27;;;-0.20;99.90;;;-1.78;100.00;102376.88;4978915;28;20019;-75
2022/01/15 02:58:24;;;;;;;149.07;10.98;;;-0.10;99.90;;;-1.68;100.00;102372.91;4957777;28;20478;-76
2022/01/15 03:00:52;;;;;;;103.63;10.48;;;0.00;99.90;;;-1.60;100.00;102373.97;4946873;28;20041;-75
2022/01/15 03:03:19;;;;;;;116.97;10.23;;;0.10;99.90;;;-1.54;100.00;102378.47;4938481;28;20035;-75
2022/01/15 03:05:47;;;;;;;130.73;10.60;;;0.10;99.90;;;-1.48;100.00;102384.69;4974312;28;20172;-75
2022/01/15 03:08:14;;;;;;;120.15;11.05;;;0.20;99.90;;;-1.40;100.00;102386.59;4937916;28;20023;-75
2022/01/15 03:10:40;;;;;;;162.95;13.10;;;0.30;99.90;;;-1.33;100.00;102375.63;4947108;28;20030;-75
2022/01/15 03:13:11;;;;;;;182.55;12.35;;;0.30;99.90;;;-1.26;100.00;102364.63;4936776;28;20495;-75
2022/01/15 03:15:42;;;;;;;139.65;11.68;;;0.40;99.90;;;-1.19;100.00;102368.25;4956467;28;20023;-75
2022/01/15 03:18:08;;;;;;;186.27;11.70;;;0.50;99.90;;;-1.14;100.00;102362.41;4916427;28;20030;-75
2022/01/15 03:20:34;;;;;;;132.45;10.63;;;0.50;99.90;;;-1.09;100.00;102360.81;4967213;28;20045;-75
2022/01/15 03:23:01;;;;;;;159.20;10.48;;;0.50;99.90;;;-1.01;100.00;102354.97;4948166;28;20026;-74
2022/01/15 03:25:27;;;;;;;153.70;10.48;;;0.60;99.90;;;-0.97;100.00;102354.22;4962395;28;20027;-76
2022/01/15 03:27:54;;;;;;;165.48;10.50;;;0.70;99.90;;;-0.91;100.00;102357.81;4939106;28;20379;-75
2022/01/15 03:30:23;;;;;;;190.43;10.60;;;0.70;99.90;;;-0.85;100.00;102362.31;4958539;28;20475;-75
2022/01/15 03:32:49;;;;;;;154.05;9.88;;;0.80;99.90;;;-0.78;100.00;102364.19;4994978;28;20038;-75
2022/01/15 03:35:17;;;;;;;235.38;11.82;;;0.80;99.90;;;-0.74;100.00;102371.22;4923161;28;20038;-74
2022/01/15 03:37:44;;;;;;;260.95;11.75;;;0.90;99.90;;;-0.66;100.00;102358.50;4936843;28;20061;-75
2022/01/15 03:40:16;;;;;;;249.88;13.57;;;1.00;99.90;;;-0.59;100.00;102365.56;4971951;28;20394;-75
2022/01/15 03:42:44;;;;;;;215.77;12.18;;;1.00;99.90;;;-0.51;100.00;102365.78;4963984;28;20019;-74
2022/01/15 03:45:13;;;;;;;261.23;68.07;;;1.10;99.90;;;-0.46;100.00;102356.41;4953422;28;20027;-74
2022/01/15 03:47:47;;;;;;;236.52;11.75;;;1.10;99.90;;;-0.42;100.00;102353.06;4958971;28;20393;-75
2022/01/15 03:50:15;;;;;;;179.00;11.70;;;1.20;99.90;;;-0.39;100.00;102347.94;4898077;28;20022;-76
2022/01/15 03:52:45;;;;;;;160.52;10.68;;;1.20;99.90;;;-0.35;100.00;102349.78;4927110;28;20030;-75
2022/01/15 03:55:14;;;;;;;160.85;10.57;;;1.30;99.90;;;-0.33;100.00;102360.16;4960952;28;20033;-74
2022/01/15 03:57:41;;;;;;;212.02;11.88;;;1.30;99.90;;;-0.33;100.00;102337.75;4961114;28;20018;-74
2022/01/15 04:00:21;;;;;;;127.50;9.98;;;1.30;99.90;;;-0.32;100.00;102346.41;4926275;28;20038;-74
2022/01/15 04:02:49;;;;;;;170.63;11.02;;;1.30;99.90;;;-0.31;100.00;102349.00;4917710;28;20027;-75
2022/01/15 04:05:15;;;;;;;147.15;9.68;;;1.30;99.90;;;-0.27;100.00;102342.22;4961629;28;20035;-75
2022/01/15 04:07:43;;;;;;;195.40;12.32;;;1.40;99.90;;;-0.25;100.00;102336.22;4920001;28;20027;-75
2022/01/15 04:10:12;;;;;;;161.05;9.60;;;1.40;99.90;;;-0.23;100.00;102331.09;4973331;28;20032;-75
2022/01/15 04:12:38;;;;;;;131.13;9.73;;;1.40;99.90;;;-0.20;100.00;102336.31;4945021;28;20233;-75
2022/01/15 04:15:08;;;;;;;197.13;10.18;;;1.40;99.90;;;-0.17;100.00;102335.50;4936000;28;20040;-75
2022/01/15 04:17:34;;;;;;;92.22;8.52;;;1.50;99.90;;;-0.14;100.00;102330.44;4942969;28;20033;-76
2022/01/15 04:20:00;;;;;;;135.13;8.70;;;1.40;99.90;;;-0.16;100.00;102325.19;4950172;28;20081;-75
2022/01/15 04:22:26;;;;;;;167.63;9.38;;;1.40;99.90;;;-0.16;100.00;102319.16;4941043;28;20068;-75
2022/01/15 04:24:52;;;;;;;98.90;8.23;;;1.50;99.90;;;-0.16;100.00;102325.19;4928134;28;20414;-76
2022/01/15 04:27:22;;;;;;;135.85;8.90;;;1.50;99.90;;;-0.19;100.00;102313.88;4949226;28;20033;-75
2022/01/15 04:29:50;;;;;;;189.20;8.80;;;1.40;99.90;;;-0.19;100.00;102307.03;4918694;28;20044;-75
2022/01/15 04:32:17;;;;;;;167.07;9.32;;;1.40;99.90;;;-0.19;100.00;102312.19;4930838;28;20031;-76
2022/01/15 04:34:43;;;;;;;172.73;8.85;;;1.50;99.90;;;-0.18;100.00;102307.88;4909010;28;20082;-74
2022/01/15 04:37:16;;;;;;;101.47;7.70;;;1.40;99.90;;;-0.22;100.00;102315.59;4957190;28;20102;-75
2022/01/15 04:39:43;;;;;;;119.72;8.55;;;1.40;99.90;;;-0.21;100.00;102306.97;4935038;28;20501;-76
2022/01/15 04:42:10;;;;;;;113.82;7.72;;;1.40;99.90;;;-0.22;100.00;102305.25;4954145;28;20128;-75
2022/01/15 04:44:37;;;;;;;94.82;7.95;;;1.50;99.90;;;-0.19;100.00;102295.75;4939483;28;20022;-75
2022/01/15 04:47:04;;;;;;;87.93;7.88;;;1.50;99.90;;;-0.16;100.00;102314.84;4969243;28;20022;-76
2022/01/15 04:49:33;;;;;;;92.45;8.15;;;1.50;99.90;;;-0.18;100.00;102318.25;4954771;28;20878;-75
2022/01/15 04:52:00;;;;;;;113.60;7.50;;;1.40;99.90;;;-0.17;100.00;102319.97;4934779;28;20031;-75
2022/01/15 04:54:26;;;;;;;105.32;7.60;;;1.50;99.90;;;-0.19;100.00;102319.97;4980865;28;20042;-76
2022/01/15 04:56:53;;;;;;;129.23;7.90;;;1.40;99.90;;;-0.22;100.00;102319.88;4917820;28;20112;-75
2022/01/15 04:59:20;;;;;;;105.82;7.10;;;1.40;99.90;;;-0.24;100.00;102331.91;4943260;28;20084;-75
2022/01/15 05:01:50;;;;;;;148.10;8.32;;;1.40;99.90;;;-0.26;100.00;102323.22;4935033;28;20034;-75
2022/01/15 05:04:16;;;;;;;114.20;6.57;;;1.40;99.90;;;-0.25;100.00;102315.50;4943978;28;20049;-75
2022/01/15 05:06:42;;;;;;;93.78;7.32;;;1.40;99.90;;;-0.23;100.00;102315.56;4944177;28;20913;-76
2022/01/15 05:09:08;;;;;;;201.02;8.70;;;1.40;99.90;;;-0.26;100.00;102320.63;4952164;28;20037;-75
2022/01/15 05:12:21;;;;;;;98.57;6.30;;;1.40;99.90;;;-0.24;100.00;102325.03;4926966;28;20402;-75
2022/01/15 05:14:30;;;;;;;113.90;5.75;;;1.40;99.90;;;-0.33;100.00;102317.03;4970023;28;20050;-75
2022/01/15 05:16:56;;;;;;;109.07;6.10;;;1.40;99.90;;;-0.31;100.00;102320.53;4943508;28;20045;-76
2022/01/15 05:19:22;;;;;;;147.75;6.93;;;1.40;99.90;;;-0.33;100.00;102316.16;4957312;28;20101;-75
2022/01/15 05:21:52;;;;;;;149.52;6.53;;;1.30;99.90;;;-0.37;100.00;102317.78;4986108;28;20405;-75
2022/01/15 05:24:19;;;;;;;131.07;5.70;;;1.30;99.90;;;-0.35;100.00;102318.72;4957565;28;20404;-76
2022/01/15 05:26:45;;;;;;;111.78;6.13;;;1.40;99.90;;;-0.36;100.00;102316.97;5010019;28;20026;-76
2022/01/15 05:29:11;;;;;;;115.38;6.75;;;1.30;99.90;;;-0.39;100.00;102318.59;4936024;28;20109;-75
2022/01/15 05:31:37;;;;;;;75.97;5.60;;;1.30;99.90;;;-0.40;100.00;102322.91;4939788;28;20034;-75
2022/01/15 05:34:03;;;;;;;119.65;5.25;;;1.30;99.90;;;-0.41;100.00;102321.19;4952876;28;20029;-76
2022/01/15 05:36:31;;;;;;;132.70;6.88;;;1.30;99.90;;;-0.40;100.00;102324.63;4961565;28;20026;-75
2022/01/15 05:38:57;;;;;;;92.20;6.28;;;1.30;99.90;;;-0.42;100.00;102317.69;4958760;28;20418;-75
2022/01/15 05:41:23;;;;;;;98.28;6.47;;;1.30;99.90;;;-0.34;100.00;102325.66;4978209;28;20091;-75
2022/01/15 05:43:49;;;;;;;97.55;5.75;;;1.30;99.90;;;-0.33;100.00;102327.38;4946016;28;20121;-76
2022/01/15 05:46:15;;;;;;;127.40;6.68;;;1.40;99.90;;;-0.32;100.00;102323.97;4956755;28;20088;-76
2022/01/15 05:48:43;;;;;;;131.13;7.20;;;1.30;99.90;;;-0.27;100.00;102329.25;4945060;28;20018;-75
2022/01/15 05:51:11;;;;;;;99.32;6.13;;;1.40;99.90;;;-0.28;100.00;102320.63;4926866;28;20066;-75
2022/01/15 05:53:37;;;;;;;156.07;7.60;;;1.40;99.90;;;-0.30;100.00;102327.47;4975516;28;20061;-76
2022/01/15 05:56:03;;;;;;;89.60;6.75;;;1.40;99.90;;;-0.29;100.00;102312.81;4946903;28;20028;-75
2022/01/15 05:58:29;;;;;;;140.15;7.57;;;1.40;99.90;;;-0.26;100.00;102323.22;4972914;28;20042;-78
2022/01/15 06:00:55;;;;;;;103.63;6.53;;;1.40;99.90;;;-0.36;100.00;102322.16;4961981;28;20061;-75
2022/01/15 06:03:21;;;;;;;145.65;8.43;;;1.30;99.90;;;-0.37;100.00;102329.88;4960653;28;20026;-76
2022/01/15 06:05:47;;;;;;;159.43;8.50;;;1.40;99.90;;;-0.36;100.00;102327.31;4928318;28;20058;-75
2022/01/15 06:08:13;;;;;;;133.15;7.93;;;1.30;99.90;;;-0.31;100.00;102333.47;4953780;28;20105;-76
2022/01/15 06:10:40;;;;;;;166.43;8.80;;;1.30;99.90;;;-0.32;100.00;102329.16;4971454;28;20041;-75
2022/01/15 06:13:07;;;;;;;141.43;9.13;;;1.40;99.90;;;-0.34;100.00;102333.41;4959567;28;20097;-76
2022/01/15 06:15:33;;;;;;;46.90;3.90;;;1.30;99.90;;;-0.44;100.00;102331.44;4952631;28;20133;-76
2022/01/15 06:17:58;;;;;;;109.60;7.47;;;1.30;99.90;;;-0.46;100.00;102340.88;4951072;28;20073;-76
2022/01/15 06:20:24;;;;;;;96.70;5.93;;;1.30;99.90;;;-0.47;100.00;102345.19;4955877;28;20021;-75
2022/01/15 06:22:50;;;;;;;128.45;8.23;;;1.30;99.90;;;-0.52;100.00;102345.91;4967838;28;20031;-76
2022/01/15 06:25:18;;;;;;;73.60;4.60;;;1.30;99.90;;;-0.53;100.00;102339.84;4923149;28;20106;-75
2022/01/15 06:27:44;;;;;;;125.15;7.05;;;1.30;99.90;;;-0.50;100.00;102349.41;4975174;28;20094;-75
2022/01/15 06:30:11;;;;;;;112.82;6.63;;;1.30;99.90;;;-0.46;100.00;102346.06;4966307;28;20422;-76
2022/01/15 06:32:37;;;;;;;133.68;8.02;;;1.30;99.90;;;-0.46;100.00;102346.06;4959140;28;20046;-76
2022/01/15 06:35:12;;;;;;;103.13;6.68;;;1.30;99.90;;;-0.40;100.00;102353.09;4980671;28;20112;-76
2022/01/15 06:37:39;;;;;;;;;;;1.30;99.90;;;-0.52;100.00;102349.38;4948935;28;20022;-75
2022/01/15 06:40:06;;;;;;;;;;;1.30;99.90;;;-0.51;100.00;102355.44;4955143;28;19909;-75
2022/01/15 06:42:33;;;;;;;80.88;5.25;;;1.30;99.90;;;-0.49;100.00;102361.50;4964236;28;19929;-76
2022/01/15 06:44:59;;;;;;;92.75;6.10;;;1.30;99.90;;;-0.44;100.00;102359.91;4958133;28;20053;-76
2022/01/15 06:47:27;;;;;;;103.38;6.72;;;1.30;99.90;;;-0.39;100.00;102355.72;4947271;28;20398;-76
2022/01/15 06:49:53;;;;;;;102.72;5.55;;;1.30;99.90;;;-0.42;100.00;102363.41;4975373;28;20743;-75
2022/01/15 06:52:21;;;;;;;110.63;7.53;;;1.30;99.90;;;-0.35;100.00;102360.13;4981302;28;20042;-75
2022/01/15 06:54:47;;;;;;;122.95;5.88;;;1.40;99.90;;;-0.32;100.00;102356.75;4984080;28;20042;-76
2022/01/15 06:57:13;;;;;;;75.63;4.43;;;1.30;99.90;;;-0.39;100.00;102357.44;4941227;28;20029;-75
2022/01/15 06:59:46;;;;;;;177.40;8.93;;;1.30;99.90;;;-0.38;100.00;102362.66;4939478;28;20114;-76
2022/01/15 07:02:12;;;;;;;188.13;9.10;;;1.40;99.90;;;-0.34;100.00;102361.03;4961777;28;20043;-76
2022/01/15 07:04:39;;;;;;;177.20;9.18;;;1.40;99.90;;;-0.26;100.00;102360.38;4955156;28;20595;-75
2022/01/15 07:07:05;;;;;;;161.43;9.57;;;1.40;99.90;;;-0.19;100.00;102365.66;4978797;28;20088;-75
2022/01/15 07:09:33;;;;;;;122.65;9.13;;;1.50;99.90;;;-0.14;100.00;102369.25;4948992;28;20026;-76
2022/01/15 07:11:59;;;;;;;152.55;9.77;;;1.60;99.90;;;-0.08;100.00;102372.00;4947588;28;20460;-75
2022/01/15 07:14:25;;;;;;;163.85;10.80;;;1.60;99.90;;;-0.02;100.00;102379.91;4964444;28;20045;-75
2022/01/15 07:16:50;;;;;;;183.52;12.27;;;1.60;99.90;;;-0.05;100.00;102387.59;4954146;28;20101;-76
2022/01/15 07:19:16;;;;;;;200.73;13.00;;;1.60;99.90;;;-0.07;100.00;102386.69;4913802;28;20030;-75
2022/01/15 07:21:42;;;;;;;213.10;11.85;;;1.60;99.90;;;-0.02;100.00;102379.91;4957565;28;20515;-75
2022/01/15 07:24:08;;;;;;;147.63;11.93;;;1.60;99.90;;;-0.02;100.00;102385.09;4938617;28;20046;-75
2022/01/15 07:26:34;;;;;;;145.48;13.60;;;1.70;99.90;;;0.06;100.00;102387.84;4966691;28;20026;-75
2022/01/15 07:29:00;;;;;;;286.98;16.58;;;1.70;99.90;;;0.12;100.00;102378.50;4963216;28;20038;-75
2022/01/15 07:31:26;;;;;;;110.00;12.00;;;1.70;99.90;;;0.18;100.00;102346.69;4931240;28;20030;-76
2022/01/15 07:33:52;;;;;;;154.52;13.35;;;1.80;99.90;;;0.23;100.00;102363.22;4950877;28;20702;-76
2022/01/15 07:36:18;;;;;;;160.27;12.77;;;1.80;99.90;;;0.28;100.00;102358.13;4962457;28;20072;-76
2022/01/15 07:38:44;;;;;;;124.65;12.10;;;1.90;99.90;;;0.30;100.00;102371.97;4943640;28;20378;-76
2022/01/15 07:41:13;;;;;;;223.45;14.90;;;1.90;99.90;;;0.31;100.00;102365.97;4953906;28;20468;-76
2022/01/15 07:43:39;;;;;;;170.73;13.15;;;1.90;99.90;;;0.37;100.00;102373.91;5015003;28;20535;-74
2022/01/15 07:46:06;;;;;;;142.85;13.30;;;1.90;99.90;;;0.42;100.00;102376.59;4959168;28;20593;-76
2022/01/15 07:48:31;;;;;;;191.45;13.93;;;2.00;99.90;;;0.43;100.00;102378.31;4928811;28;20018;-75
2022/01/15 07:50:57;;;;;;;139.25;13.15;;;2.00;99.90;;;0.45;100.00;102387.88;4837439;28;20065;-76
2022/01/15 07:53:23;;;;;;;140.73;12.50;;;2.00;99.90;;;0.49;100.00;102391.41;4915994;28;20124;-76
2022/01/15 07:55:49;;;;;;;127.55;11.75;;;2.10;99.90;;;0.52;100.00;102369.03;4937134;28;20038;-76
2022/01/15 07:58:15;;;;;;;174.43;12.57;;;2.10;99.90;;;0.55;100.00;102388.97;4956527;28;20065;-75
2022/01/15 08:00:41;;;;;;;190.07;13.70;;;2.10;99.90;;;0.50;100.00;102407.00;4973073;28;20037;-76
2022/01/15 08:03:07;;;;;;;145.98;12.60;;;2.10;99.90;;;0.48;100.00;102397.44;4961759;28;20890;-76
2022/01/15 08:05:34;;;;;;;162.85;13.93;;;2.10;99.90;;;0.55;100.00;102401.91;4925954;28;20022;-76
2022/01/15 08:08:00;;;;;;;137.13;11.93;;;2.10;99.90;;;0.59;100.00;102407.19;4934323;28;20489;-76
2022/01/15 08:10:26;;;;;;;159.32;14.00;;;2.20;99.90;;;0.59;100.00;102398.56;4962943;28;20030;-76
2022/01/15 08:12:52;;;;;;;144.57;12.52;;;2.10;99.90;;;0.58;100.00;102405.47;4951045;28;20046;-77
2022/01/15 08:15:20;;;;;;;169.63;13.98;;;2.20;99.90;;;0.66;100.00;102412.53;4924150;28;20623;-75
2022/01/15 08:17:48;;;;;;;151.70;15.15;;;2.30;99.90;;;0.72;100.00;102418.72;4952722;28;20023;-75
2022/01/15 08:20:15;;;;;;;167.23;15.20;;;2.30;99.90;;;0.78;100.00;102416.25;4973302;28;20026;-76
2022/01/15 08:22:42;;;;;;;174.88;17.90;;;2.30;99.90;;;0.84;100.00;102419.78;4943697;28;20046;-76
2022/01/15 08:25:10;;;;;;;194.23;14.73;;;2.40;99.90;;;0.91;100.00;102409.59;4962926;28;20173;-75
2022/01/15 08:27:36;;;;;;;193.07;15.40;;;2.50;99.90;;;0.96;100.00;102425.25;4963066;28;20470;-76
2022/01/15 08:30:08;;;;;;;180.70;15.70;;;2.50;99.90;;;0.98;100.00;102411.47;4969725;28;20030;-75
2022/01/15 08:32:34;;;;;;;172.38;16.02;;;2.50;99.90;;;1.05;100.00;102438.38;4960519;28;20092;-76
2022/01/15 08:35:00;;;;;;;216.07;17.58;;;2.60;99.90;;;1.12;100.00;102429.88;4944692;28;20068;-76
2022/01/15 08:37:26;;;;;;;128.40;14.75;;;2.60;99.90;;;1.19;100.00;102423.13;4944514;28;20682;-75
2022/01/15 08:39:53;;;;;;;143.93;13.63;;;2.70;99.90;;;1.26;100.00;102422.38;4952478;28;20053;-77
2022/01/15 08:42:19;;;;;;;160.23;14.73;;;2.70;99.90;;;1.31;100.00;102428.53;4945161;28;20442;-77
2022/01/15 08:44:46;;;;;;;193.35;15.85;;;2.80;99.90;;;1.37;100.00;102433.81;4978970;28;20096;-77
2022/01/15 08:47:12;;;;;;;174.82;14.43;;;2.90;99.90;;;1.41;100.00;102426.97;4971341;28;20125;-76
2022/01/15 08:49:41;;;;;;;154.75;15.32;;;;;;;1.43;100.00;102422.69;4926043;28;20030;-77
2022/01/15 08:52:23;;;;;;;146.98;15.10;;;2.90;99.90;;;1.47;100.00;102427.09;4873366;28;20080;-77
2022/01/15 08:55:02;;;;;;;149.45;14.90;;;;;;;1.50;100.00;102403.78;4867059;28;21434;-75
2022/01/15 08:57:28;;;;;;;131.60;14.63;;;3.10;99.90;;;1.57;100.00;102433.31;4918837;28;20042;-76
2022/01/15 08:59:54;;;;;;;143.85;15.82;;;3.10;99.90;;;1.61;100.00;102378.00;4969100;28;20022;-77
2022/01/15 09:02:20;;;;;;;157.05;15.10;;;3.10;99.90;;;1.65;100.00;102431.75;4968789;28;20030;-76
2022/01/15 09:04:46;;;;;;;138.50;15.05;;;3.20;99.90;;;1.73;100.00;102424.97;4975398;28;20121;-76
2022/01/15 09:07:13;;;;;;;154.82;15.18;;;3.20;99.90;;;1.77;100.00;102442.34;4989689;28;20038;-75
2022/01/15 09:09:41;;;;;;;141.85;15.80;;;3.30;99.90;;;1.80;100.00;102418.16;4976804;28;20053;-76
2022/01/15 09:12:09;;;;;;;169.70;15.38;;;3.30;99.90;;;1.86;100.00;102423.44;4945576;28;20033;-76
2022/01/15 09:14:35;;;;;;;190.63;23.35;;;3.40;99.90;;;1.90;100.00;102401.88;4962733;28;20037;-76
2022/01/15 09:17:07;;;;;;;207.48;21.95;;;3.40;99.90;;;1.92;100.00;102392.34;4969513;28;20041;-77
2022/01/15 09:19:33;;;;;;;183.57;19.95;;;3.40;99.90;;;1.94;100.00;102413.16;4971141;28;23385;-76
2022/01/15 09:22:01;;;;;;;156.55;15.05;;;3.40;99.90;;;1.99;100.00;102377.75;4970951;28;20036;-78
2022/01/15 09:24:27;;;;;;;187.27;18.30;;;3.50;99.90;;;2.03;100.00;102422.00;4969912;28;20109;-78
2022/01/15 09:32:11;;;;;;;172.55;16.02;;;3.60;99.90;;;2.23;100.00;102434.44;4973966;28;20073;-76
2022/01/15 09:34:37;;;;;;;138.95;15.75;;;3.60;99.90;;;2.24;100.00;102420.56;4954140;28;20034;-76
2022/01/15 09:37:06;;;;;;;159.30;16.23;;;3.50;99.90;;;2.24;100.00;102437.03;4970929;28;20026;-75
2022/01/15 09:39:36;;;;;;;192.80;16.63;;;3.70;99.90;;;2.24;100.00;102438.75;4969829;28;20022;-76
2022/01/15 09:42:07;;;;;;;145.27;15.82;;;3.70;99.90;;;2.22;100.00;102436.13;4962520;28;20042;-78
2022/01/15 09:44:36;;;;;;;135.98;15.23;;;3.70;99.90;;;2.25;100.00;102425.78;4955885;28;20042;-76
2022/01/15 09:47:03;;;;;;;146.15;13.05;;;3.80;99.90;;;2.31;100.00;102431.91;4981674;28;20140;-75
2022/01/15 09:49:32;;;;;;;122.63;12.50;;;3.80;99.90;;;2.37;100.00;102426.81;4925614;28;20115;-76
2022/01/15 09:52:07;;;;;;;197.95;20.48;;;3.80;99.90;;;2.42;100.00;102419.97;4919031;28;20080;-76
2022/01/15 09:54:34;;;;;;;145.18;15.48;;;3.90;99.90;;;2.49;100.00;102419.19;4921629;28;20029;-76
2022/01/15 09:57:03;;;;;;;114.13;12.10;;;3.90;99.90;;;2.58;100.00;102419.31;4964515;28;20026;-76
2022/01/15 09:59:29;;;;;;;110.07;13.63;;;4.00;99.90;;;2.61;100.00;102424.59;4977899;28;20042;-76
2022/01/15 10:01:57;;;;;;;127.45;12.88;;;4.00;99.90;;;2.63;100.00;102424.56;4958683;28;20042;-76
2022/01/15 10:04:28;;;;;;;122.93;13.30;;;4.00;99.90;;;2.65;100.00;102423.75;4936831;28;20615;-76
2022/01/15 10:07:14;;;;;;;109.95;12.13;;;4.10;99.90;;;2.69;100.00;102427.25;4938121;28;20065;-76
2022/01/15 10:09:42;;;;;;;109.03;11.57;;;4.10;99.90;;;2.69;100.00;102426.41;4949839;28;20033;-76
2022/01/15 10:12:09;;;;;;;125.30;13.55;;;4.10;99.90;;;2.66;100.00;102437.63;4967294;28;20030;-78
2022/01/15 10:14:43;;;;;;;97.95;12.00;;;4.10;99.90;;;2.69;100.00;102442.00;4948350;28;20058;-78
2022/01/15 10:17:33;;;;;;;131.23;13.30;;;4.20;99.90;;;2.67;100.00;102435.03;4954947;28;20436;-76
2022/01/15 10:20:06;;;;;;;118.50;12.45;;;4.20;99.90;;;2.75;100.00;102444.69;4906026;28;20035;-78
2022/01/15 10:22:35;;;;;;;99.82;13.25;;;4.20;99.90;;;2.78;100.00;102448.19;4945000;28;20051;-80
2022/01/15 10:25:07;;;;;;;119.80;18.52;;;4.20;99.90;;;2.83;100.00;102456.94;4921621;28;20034;-80
2022/01/15 10:27:56;;;;;;;105.78;17.10;;;4.30;99.90;;;2.84;100.00;102453.47;4945044;28;20021;-76
2022/01/15 10:30:31;;;;;;;96.72;18.88;;;4.30;99.90;;;2.94;100.00;102444.06;4932275;28;20522;-77
2022/01/15 10:33:08;;;;;;;98.88;13.73;;;4.30;99.90;;;2.96;100.00;102447.56;4878602;28;20503;-76
2022/01/15 10:35:46;;;;;;;93.05;13.77;;;4.40;99.90;;;2.97;100.00;102444.09;4929890;28;20462;-79
2022/01/15 10:38:19;;;;;;;80.47;13.43;;;4.40;99.90;;;3.01;100.00;102430.28;4907477;28;20101;-78
2022/01/15 10:40:53;;;;;;;98.18;18.80;;;4.50;99.90;;;3.10;100.00;102439.91;4935008;28;20041;-79
2022/01/15 10:43:33;;;;;;;92.13;20.42;;;4.50;99.90;;;3.24;100.00;102443.56;4945502;28;20614;-77